»·PEaware :: N7975R CYBD-CYVR

N7975R :: CYBD-CYVR

FLIGHT INFORMATION

Flight Status: Arrived
Operator: Privately registered:
United States
More flights under this callsign
Pilot: Michael F. (8929)
Aircraft: SAAB 340
(SF34)
More flights by this aircraft type
Origin: CYBD Bella Coola
Canada
Destination: CYVR Vancouver Intl
Canada
More flights between these airports :: More routes between these airports
Route: TRENA KEINN1
File this flight plan on PilotEdge
Remarks:
Altitude:
(Current/Filed)
19,000ft
Speed:
(Current/Filed)
240kts
Departed: 03-May-18 04:22 PM
Arrived: 03-May-18 05:31 PM
Distance/Time
Traveled:
231nm/1:09
Distance/Time
To Go:
Arrived

Flight Plot

Page will automatically refresh every two minutes.

Flight plan parsing failed; only flown route is shown


Map Options




Map Legend


Flown Route
Filed Route
Departure Airport
Arrival Airport
Navaid (VOR, NDB)
Fix

Horizontal Profiles

Position Reports

Time Latitude Longitude Heading Altitude Ground
Speed
03-May-18 16:05 52.387978 -126.588118 248 122ft 0kts
03-May-18 16:06 52.387978 -126.588118 248 122ft 0kts
03-May-18 16:07 52.387796 -126.588789 243 122ft 0kts
03-May-18 16:08 52.387795 -126.588793 243 122ft 0kts
03-May-18 16:09 52.388014 -126.588173 90 122ft 0kts
03-May-18 16:10 52.388013 -126.588132 97 122ft 0kts
03-May-18 16:11 52.388011 -126.588105 96 122ft 0kts
03-May-18 16:12 52.388218 -126.588678 352 122ft 6kts
03-May-18 16:13 52.388048 -126.589684 221 122ft 0kts
03-May-18 16:14 52.388048 -126.589684 221 122ft 0kts
03-May-18 16:15 52.388048 -126.589684 221 122ft 0kts
03-May-18 16:16 52.388048 -126.589684 221 122ft 0kts
03-May-18 16:17 52.388048 -126.589684 221 122ft 0kts
03-May-18 16:18 52.388048 -126.589684 221 122ft 0kts
03-May-18 16:19 52.388045 -126.589689 221 122ft 0kts
03-May-18 16:20 52.388655 -126.588030 4 122ft 0kts
03-May-18 16:21 52.389269 -126.588827 260 122ft 12kts
03-May-18 16:22 52.380247 -126.636206 257 1668ft 138kts
03-May-18 16:23 52.384254 -126.702780 274 4293ft 162kts
03-May-18 16:24 52.354901 -126.704117 125 6904ft 168kts
03-May-18 16:25 52.331131 -126.637996 124 9300ft 176kts
03-May-18 16:26 52.305689 -126.567713 130 11579ft 183kts
03-May-18 16:27 52.278905 -126.495450 132 13660ft 190kts
03-May-18 16:28 52.247170 -126.425859 145 15542ft 190kts
03-May-18 16:29 52.207229 -126.368183 151 17261ft 193kts
03-May-18 16:30 52.164600 -126.313105 152 18829ft 199kts
03-May-18 16:31 52.115791 -126.251876 151 19077ft 233kts
03-May-18 16:32 52.063042 -126.185635 150 19078ft 244kts
03-May-18 16:33 52.008694 -126.117541 150 19079ft 248kts
03-May-18 16:34 51.953724 -126.048911 150 19082ft 250kts
03-May-18 16:35 51.898670 -125.980427 150 19084ft 250kts
03-May-18 16:36 51.843279 -125.911764 150 19085ft 250kts
03-May-18 16:37 51.788040 -125.843536 151 19088ft 250kts
03-May-18 16:38 51.731024 -125.781702 149 19092ft 251kts
03-May-18 16:39 51.676779 -125.709779 139 19094ft 251kts
03-May-18 16:40 51.639226 -125.662369 142 18791ft 261kts
03-May-18 16:41 51.581836 -125.591160 142 18623ft 256kts
03-May-18 16:42 51.525525 -125.522284 142 18618ft 252kts
03-May-18 16:43 51.486686 -125.475059 142 18632ft 250kts
03-May-18 16:44 51.431241 -125.407890 142 18656ft 249kts
03-May-18 16:45 51.375815 -125.340981 142 18712ft 248kts
03-May-18 16:46 51.320571 -125.274509 142 18739ft 249kts
03-May-18 16:47 51.265362 -125.208147 143 18768ft 247kts
03-May-18 16:48 51.209963 -125.141994 143 18757ft 249kts
03-May-18 16:49 51.154476 -125.075883 143 18773ft 249kts
03-May-18 16:50 51.098615 -125.009505 143 18773ft 250kts
03-May-18 16:51 51.042895 -124.943493 143 18767ft 250kts
03-May-18 16:52 50.987174 -124.877680 143 18786ft 249kts
03-May-18 16:53 50.931315 -124.811903 143 18798ft 249kts
03-May-18 16:54 50.875478 -124.746353 143 18795ft 250kts
03-May-18 16:55 50.819415 -124.680741 143 18794ft 250kts
03-May-18 16:56 50.763672 -124.615699 143 18830ft 249kts
03-May-18 16:57 50.707789 -124.550690 143 18827ft 250kts
03-May-18 16:58 50.651638 -124.485605 142 18816ft 249kts
03-May-18 16:59 50.595880 -124.421128 141 18807ft 249kts
03-May-18 17:00 50.540284 -124.357046 140 18800ft 245kts
03-May-18 17:01 50.486299 -124.294941 142 18799ft 234kts
03-May-18 17:01 50.442855 -124.246200 150 18807ft 226kts
03-May-18 17:03 50.379475 -124.190807 151 18737ft 222kts
03-May-18 17:04 50.325181 -124.145728 153 17665ft 223kts
03-May-18 17:05 50.270086 -124.100451 151 16468ft 224kts
03-May-18 17:06 50.214369 -124.054815 151 15267ft 226kts
03-May-18 17:07 50.158774 -124.009344 153 14071ft 224kts
03-May-18 17:07 50.112595 -123.971846 148 13066ft 228kts
03-May-18 17:08 50.054451 -123.924434 148 11867ft 241kts
03-May-18 17:09 49.994431 -123.875858 148 10670ft 244kts
03-May-18 17:10 49.934998 -123.827926 148 9835ft 230kts
03-May-18 17:11 49.878842 -123.782646 148 9790ft 229kts
03-May-18 17:12 49.821968 -123.736890 149 9820ft 233kts
03-May-18 17:13 49.763750 -123.690224 149 9831ft 236kts
03-May-18 17:14 49.719855 -123.655097 150 9743ft 232kts
03-May-18 17:15 49.667942 -123.613675 154 9833ft 246kts
03-May-18 17:16 49.605807 -123.564280 153 9833ft 253kts
03-May-18 17:17 49.541653 -123.513374 152 8551ft 294kts
03-May-18 17:18 49.466217 -123.453734 152 6148ft 292kts
03-May-18 17:19 49.399740 -123.401160 152 5031ft 253kts
03-May-18 17:20 49.348858 -123.425412 262 5000ft 214kts
03-May-18 17:21 49.351403 -123.515141 274 4965ft 213kts
03-May-18 17:22 49.349107 -123.604700 230 4754ft 215kts
03-May-18 17:23 49.301700 -123.588157 135 5792ft 167kts
03-May-18 17:24 49.263245 -123.523376 129 4787ft 223kts
03-May-18 17:25 49.232292 -123.439480 118 4146ft 218kts
03-May-18 17:26 49.211067 -123.401556 127 3759ft 223kts
03-May-18 17:27 49.215355 -123.315444 82 1693ft 176kts
03-May-18 17:28 49.210327 -123.247508 99 801ft 140kts
03-May-18 17:29 49.204468 -123.194726 99 50ft 112kts
03-May-18 17:30 49.200291 -123.167608 118 18ft 19kts
03-May-18 17:31 49.199605 -123.170496 273 18ft 15kts
03-May-18 17:32 49.199999 -123.179633 260 18ft 23kts
03-May-18 17:33 49.198834 -123.185753 190 18ft 16kts

Navigation Log

Ident Type
Flight plan parsing failed, navigation log unavailable